createdAt,value
2024-03-22T00:01:58.684Z,97939.89
2024-03-22T00:04:27.297Z,97936.76
2024-03-22T00:06:55.952Z,97931.41
2024-03-22T00:09:26.941Z,97935.56
2024-03-22T00:11:55.417Z,97934.79
2024-03-22T00:14:24.697Z,97933.73
2024-03-22T00:16:53.175Z,97930.02
2024-03-22T00:19:23.085Z,97928.13
2024-03-22T00:21:51.372Z,97927.55
2024-03-22T00:24:19.503Z,97927.06
2024-03-22T00:26:48.016Z,97927.32
2024-03-22T00:29:17.277Z,97927.81
2024-03-22T00:31:45.414Z,97930.13
2024-03-22T00:34:13.624Z,97928.81
2024-03-22T00:36:41.632Z,97931.29
2024-03-22T00:39:09.762Z,97929.83
2024-03-22T00:41:38.204Z,97932.95
2024-03-22T00:44:06.382Z,97930.21
2024-03-22T00:46:34.545Z,97933.07
2024-03-22T00:49:06.567Z,97933.33
2024-03-22T00:51:34.767Z,97934.08
2024-03-22T00:54:03.926Z,97935.97
2024-03-22T00:56:32.147Z,97931.90
2024-03-22T00:59:01.848Z,97933.17
2024-03-22T01:01:30.368Z,97931.50
2024-03-22T01:03:58.602Z,97929.10
2024-03-22T01:06:28.364Z,97925.14
2024-03-22T01:08:57.381Z,97919.98
2024-03-22T01:11:25.901Z,97917.71
2024-03-22T01:13:54.061Z,97918.81
2024-03-22T01:16:22.708Z,97917.98
2024-03-22T01:18:50.991Z,97922.66
2024-03-22T01:21:26.010Z,97922.14
2024-03-22T01:23:54.368Z,97922.66
2024-03-22T01:26:22.570Z,97923.85
2024-03-22T01:28:50.990Z,97920.83
2024-03-22T01:31:19.271Z,97917.73
2024-03-22T01:33:47.939Z,97918.55
2024-03-22T01:36:16.379Z,97917.14
2024-03-22T01:38:47.019Z,97917.05
2024-03-22T01:41:15.855Z,97916.17
2024-03-22T01:43:44.192Z,97914.52
2024-03-22T01:46:12.505Z,97911.80
2024-03-22T01:48:41.492Z,97909.55
2024-03-22T01:51:11.003Z,97909.04
2024-03-22T01:53:39.486Z,97909.46
2024-03-22T01:56:10.719Z,97905.69
2024-03-22T01:58:39.118Z,97909.02
2024-03-22T02:01:07.282Z,97908.38
2024-03-22T02:03:35.606Z,97909.60
2024-03-22T02:06:05.651Z,97908.61
2024-03-22T02:08:35.242Z,97908.42
2024-03-22T02:11:03.646Z,97901.32
2024-03-22T02:13:31.798Z,97903.61
2024-03-22T02:15:59.810Z,97900.77
2024-03-22T02:18:28.036Z,97900.06
2024-03-22T02:20:58.589Z,97901.45
2024-03-22T02:23:37.768Z,97900.17
2024-03-22T02:26:07.312Z,97900.02
2024-03-22T02:28:37.338Z,97901.83
2024-03-22T02:31:06.611Z,97901.04
2024-03-22T02:33:35.094Z,97900.83
2024-03-22T02:36:03.678Z,97897.89
2024-03-22T02:38:32.399Z,97898.06
2024-03-22T02:41:00.617Z,97892.58
2024-03-22T02:43:29.667Z,97888.86
2024-03-22T02:45:57.940Z,97887.69
2024-03-22T02:48:26.408Z,97885.78
2024-03-22T02:50:57.469Z,97883.61
2024-03-22T02:53:28.498Z,97882.23
2024-03-22T02:56:00.476Z,97880.80
2024-03-22T02:58:28.808Z,97877.29
2024-03-22T03:00:57.620Z,97874.59
2024-03-22T03:03:25.710Z,97874.55
2024-03-22T03:05:54.073Z,97875.69
2024-03-22T03:08:22.170Z,97878.76
2024-03-22T03:10:50.821Z,97876.84
2024-03-22T03:13:18.918Z,97876.55
2024-03-22T03:15:47.201Z,97878.64
2024-03-22T03:18:15.355Z,97871.70
2024-03-22T03:20:43.632Z,97872.77
2024-03-22T03:23:11.800Z,97876.75
2024-03-22T03:25:40.131Z,97875.08
2024-03-22T03:28:08.963Z,97879.15
2024-03-22T03:30:37.119Z,97883.38
2024-03-22T03:33:05.983Z,97883.81
2024-03-22T03:35:34.136Z,97883.67
2024-03-22T03:38:05.214Z,97884.11
2024-03-22T03:40:36.581Z,97884.65
2024-03-22T03:43:05.688Z,97888.40
2024-03-22T03:45:38.311Z,97883.21
2024-03-22T03:48:06.828Z,97889.83
2024-03-22T03:50:36.111Z,97889.36
2024-03-22T03:53:04.235Z,97889.83
2024-03-22T03:55:36.067Z,97889.44
2024-03-22T03:58:04.964Z,97892.22
2024-03-22T04:00:33.098Z,97892.06
2024-03-22T04:03:01.292Z,97891.13
2024-03-22T04:05:29.958Z,97891.88
2024-03-22T04:07:58.161Z,97896.26
2024-03-22T04:10:26.247Z,97896.77
2024-03-22T04:12:54.411Z,97898.22
2024-03-22T04:15:26.076Z,97898.27
2024-03-22T04:17:57.625Z,97903.90
2024-03-22T04:20:25.877Z,97905.97
2024-03-22T04:22:54.842Z,97906.80
2024-03-22T04:25:23.356Z,97908.25
2024-03-22T04:27:51.739Z,97911.34
2024-03-22T04:30:21.679Z,97913.34
2024-03-22T04:32:50.138Z,97914.23
2024-03-22T04:35:21.381Z,97922.09
2024-03-22T04:37:51.009Z,97919.20
2024-03-22T04:40:19.236Z,97922.79
2024-03-22T04:42:47.754Z,97924.78
2024-03-22T04:45:16.343Z,97929.79
2024-03-22T04:47:45.470Z,97929.17
2024-03-22T04:50:16.045Z,97937.16
2024-03-22T04:52:44.199Z,97941.16
2024-03-22T04:55:14.468Z,97946.82
2024-03-22T04:57:42.965Z,97946.91
2024-03-22T05:00:12.645Z,97949.70
2024-03-22T05:02:41.780Z,97949.14
2024-03-22T05:05:11.173Z,97954.11
2024-03-22T05:07:39.860Z,97952.86
2024-03-22T05:10:10.508Z,97952.49
2024-03-22T05:12:39.419Z,97946.28
2024-03-22T05:15:11.222Z,97951.60
2024-03-22T05:17:40.232Z,97950.58
2024-03-22T05:20:11.757Z,97945.77
2024-03-22T05:22:40.550Z,97948.69
2024-03-22T05:25:09.739Z,97952.77
2024-03-22T05:27:38.421Z,97956.20
2024-03-22T05:30:08.575Z,97959.55
2024-03-22T05:32:38.640Z,97960.03
2024-03-22T05:35:08.167Z,97961.76
2024-03-22T05:37:37.162Z,97961.52
2024-03-22T05:40:07.697Z,97963.27
2024-03-22T05:42:36.740Z,97964.45
2024-03-22T05:45:06.599Z,97967.88
2024-03-22T05:47:38.637Z,97967.35
2024-03-22T05:50:10.760Z,97968.71
2024-03-22T05:52:39.022Z,97965.77
2024-03-22T05:55:08.411Z,97966.64
2024-03-22T05:57:39.012Z,97968.60
2024-03-22T06:00:15.687Z,97966.58
2024-03-22T06:02:44.084Z,97968.79
2024-03-22T06:05:15.456Z,97970.95
2024-03-22T06:07:48.131Z,97969.01
2024-03-22T06:10:20.459Z,97967.02
2024-03-22T06:12:50.203Z,97964.56
2024-03-22T06:15:18.417Z,97962.70
2024-03-22T06:17:48.865Z,97960.66
2024-03-22T06:20:24.232Z,97956.02
2024-03-22T06:22:52.718Z,97948.80
2024-03-22T06:25:21.050Z,97948.41
2024-03-22T06:27:49.680Z,97946.71
2024-03-22T06:30:22.284Z,97946.93
2024-03-22T06:33:00.901Z,97946.38
2024-03-22T06:35:34.102Z,97945.88
2024-03-22T06:38:05.752Z,97946.35
2024-03-22T06:40:37.093Z,97943.94
2024-03-22T06:43:05.639Z,97946.42
2024-03-22T06:45:35.278Z,97940.54
2024-03-22T06:48:05.224Z,97941.30
2024-03-22T06:50:35.527Z,97942.11
2024-03-22T06:53:06.418Z,97941.83
2024-03-22T06:55:35.202Z,97941.31
2024-03-22T06:58:03.830Z,97943.06
2024-03-22T07:00:32.423Z,97941.90
2024-03-22T07:03:04.582Z,97944.95
2024-03-22T07:05:33.009Z,97939.23
2024-03-22T07:08:05.087Z,97933.13
2024-03-22T07:10:34.574Z,97934.82
2024-03-22T07:13:05.864Z,97930.99
2024-03-22T07:15:36.992Z,97932.39
2024-03-22T07:18:06.135Z,97935.42
2024-03-22T07:20:34.876Z,97930.11
2024-03-22T07:23:05.690Z,97932.69
2024-03-22T07:25:40.641Z,97933.30
2024-03-22T07:28:11.990Z,97929.48
2024-03-22T07:30:41.351Z,97930.09
2024-03-22T07:33:17.972Z,97928.35
2024-03-22T07:35:46.956Z,97930.08
2024-03-22T07:38:17.586Z,97928.33
2024-03-22T07:40:49.971Z,97927.98
2024-03-22T07:43:20.266Z,97924.34
2024-03-22T07:45:48.617Z,97920.38
2024-03-22T07:48:18.410Z,97920.66
2024-03-22T07:51:00.140Z,97917.30
2024-03-22T07:53:32.230Z,97922.77
2024-03-22T07:56:01.768Z,97927.02
2024-03-22T07:58:30.752Z,97919.09
2024-03-22T08:00:58.976Z,97919.02
2024-03-22T08:03:31.063Z,97915.91
2024-03-22T08:06:02.231Z,97920.28
2024-03-22T08:08:32.008Z,97919.08
2024-03-22T08:11:00.788Z,97917.34
2024-03-22T08:13:33.054Z,97917.51
2024-03-22T08:16:02.878Z,97918.57
2024-03-22T08:18:31.147Z,97913.52
2024-03-22T08:21:00.477Z,97915.72
2024-03-22T08:23:29.171Z,97915.92
2024-03-22T08:25:58.373Z,97909.38
2024-03-22T08:28:36.505Z,97905.08
2024-03-22T08:31:09.393Z,97903.60
2024-03-22T08:33:39.401Z,97903.12
2024-03-22T08:36:09.328Z,97902.08
2024-03-22T08:38:40.476Z,97901.95
2024-03-22T08:41:12.208Z,97905.63
2024-03-22T08:43:40.953Z,97904.74
2024-03-22T08:46:20.692Z,97903.73
2024-03-22T08:48:51.295Z,97894.21
2024-03-22T08:51:19.926Z,97893.86
2024-03-22T08:53:52.086Z,97892.04
2024-03-22T08:56:24.603Z,97891.45
2024-03-22T08:59:02.567Z,97891.01
2024-03-22T09:01:31.049Z,97885.39
2024-03-22T09:03:59.579Z,97886.11
2024-03-22T09:06:28.820Z,97883.90
2024-03-22T09:08:58.880Z,97882.34
2024-03-22T09:11:29.323Z,97882.75
2024-03-22T09:13:57.733Z,97876.04
2024-03-22T09:16:26.484Z,97875.38
2024-03-22T09:19:00.697Z,97872.95
2024-03-22T09:21:30.431Z,97870.42
2024-03-22T09:23:58.812Z,97869.16
2024-03-22T09:26:28.091Z,97868.77
2024-03-22T09:28:56.363Z,97867.95
2024-03-22T09:31:24.812Z,97866.13
2024-03-22T09:33:52.991Z,97864.95
2024-03-22T09:36:22.915Z,97859.64
2024-03-22T09:38:51.064Z,97855.41
2024-03-22T09:41:28.472Z,97859.04
2024-03-22T09:44:01.952Z,97856.36
2024-03-22T09:46:35.362Z,97854.20
2024-03-22T09:49:07.665Z,97849.81
2024-03-22T09:51:39.353Z,97849.70
2024-03-22T09:54:11.827Z,97850.96
2024-03-22T09:56:43.155Z,97850.12
2024-03-22T09:59:12.930Z,97849.55
2024-03-22T10:01:43.567Z,97843.61
2024-03-22T10:04:12.460Z,97838.53
2024-03-22T10:06:40.833Z,97831.01
2024-03-22T10:09:10.298Z,97830.48
2024-03-22T10:11:38.669Z,97824.95
2024-03-22T10:14:12.797Z,97824.52
2024-03-22T10:16:41.209Z,97817.08
2024-03-22T10:19:11.650Z,97818.99
2024-03-22T10:21:40.157Z,97811.73
2024-03-22T10:24:09.039Z,97810.83
2024-03-22T10:26:37.712Z,97805.27
2024-03-22T10:29:10.687Z,97807.67
2024-03-22T10:31:40.726Z,97807.95
2024-03-22T10:34:12.938Z,97800.95
2024-03-22T10:36:48.991Z,97795.70
2024-03-22T10:39:20.548Z,97794.21
2024-03-22T10:41:50.193Z,97793.98
2024-03-22T10:44:19.507Z,97792.76
2024-03-22T10:46:50.321Z,97786.71
2024-03-22T10:49:25.665Z,97784.97
2024-03-22T10:52:07.047Z,97782.22
2024-03-22T10:54:39.186Z,97777.21
2024-03-22T10:57:18.802Z,97775.31
2024-03-22T10:59:57.383Z,97776.55
2024-03-22T11:02:26.100Z,97779.85
2024-03-22T11:05:02.055Z,97768.23
2024-03-22T11:07:33.274Z,97764.23
2024-03-22T11:10:10.391Z,97766.60
2024-03-22T11:12:44.868Z,97762.02
2024-03-22T11:15:16.044Z,97759.33
2024-03-22T11:17:44.897Z,97754.91
2024-03-22T11:20:15.731Z,97749.06
2024-03-22T11:22:47.638Z,97738.52
2024-03-22T11:25:20.690Z,97738.94
2024-03-22T11:27:50.845Z,97735.77
2024-03-22T11:30:23.009Z,97730.67
2024-03-22T11:32:54.344Z,97728.55
2024-03-22T11:35:33.158Z,97724.48
2024-03-22T11:38:02.186Z,97721.30
2024-03-22T11:40:35.851Z,97721.15
2024-03-22T11:43:06.081Z,97716.75
2024-03-22T11:45:45.691Z,97711.23
2024-03-22T11:48:14.552Z,97709.73
2024-03-22T11:50:46.707Z,97705.45
2024-03-22T11:53:21.750Z,97703.85
2024-03-22T11:55:51.324Z,97702.94
2024-03-22T11:58:20.432Z,97703.08
2024-03-22T12:01:12.059Z,97700.98
2024-03-22T12:03:42.556Z,97697.04
2024-03-22T12:06:13.731Z,97697.60
2024-03-22T12:08:45.323Z,97690.45
2024-03-22T12:11:15.787Z,97685.29
2024-03-22T12:13:46.310Z,97687.22
2024-03-22T12:16:17.816Z,97692.19
2024-03-22T12:18:49.753Z,97687.70
2024-03-22T12:21:20.055Z,97689.59
2024-03-22T12:24:12.186Z,97690.06
2024-03-22T12:26:42.526Z,97687.08
2024-03-22T12:29:14.273Z,97678.74
2024-03-22T12:31:44.954Z,97684.82
2024-03-22T12:34:15.108Z,97684.39
2024-03-22T12:36:44.367Z,97674.52
2024-03-22T12:39:20.852Z,97674.17
2024-03-22T12:41:49.531Z,97673.48
2024-03-22T12:44:17.748Z,97667.48
2024-03-22T12:46:46.135Z,97668.94
2024-03-22T12:49:17.258Z,97665.03
2024-03-22T12:51:52.023Z,97661.59
2024-03-22T12:54:23.526Z,97664.14
2024-03-22T12:56:53.169Z,97657.45
2024-03-22T12:59:28.368Z,97655.92
2024-03-22T13:02:01.061Z,97654.25
2024-03-22T13:04:30.674Z,97655.86
2024-03-22T13:07:00.476Z,97655.09
2024-03-22T13:09:30.545Z,97655.55
2024-03-22T13:11:59.405Z,97660.96
2024-03-22T13:14:34.961Z,97657.14
2024-03-22T13:17:08.965Z,97655.81
2024-03-22T13:19:39.229Z,97650.48
2024-03-22T13:22:13.970Z,97651.04
2024-03-22T13:24:48.836Z,97657.30
2024-03-22T13:27:17.928Z,97657.55
2024-03-22T13:29:46.293Z,97667.55
2024-03-22T13:32:21.078Z,97669.56
2024-03-22T13:34:50.910Z,97658.25
2024-03-22T13:37:20.629Z,97655.35
2024-03-22T13:39:59.034Z,97659.21
2024-03-22T13:42:27.527Z,97657.38
2024-03-22T13:45:02.891Z,97654.76
2024-03-22T13:47:38.678Z,97649.08
2024-03-22T13:50:11.439Z,97646.64
2024-03-22T13:52:39.855Z,97647.10
2024-03-22T13:55:10.298Z,97650.82
2024-03-22T13:57:39.187Z,97648.48
2024-03-22T14:00:15.648Z,97646.25
2024-03-22T14:02:45.800Z,97646.06
2024-03-22T14:05:14.393Z,97643.58
2024-03-22T14:07:46.609Z,97638.45
2024-03-22T14:10:17.103Z,97638.98
2024-03-22T14:12:53.228Z,97636.30
2024-03-22T14:15:26.511Z,97634.78
2024-03-22T14:17:56.970Z,97645.55
2024-03-22T14:20:33.500Z,97648.86
2024-03-22T14:23:02.508Z,97643.41
2024-03-22T14:25:34.102Z,97640.73
2024-03-22T14:28:05.893Z,97646.39
2024-03-22T14:30:49.498Z,97638.01
2024-03-22T14:33:20.145Z,97640.56
2024-03-22T14:35:54.133Z,97646.71
2024-03-22T14:38:22.746Z,97639.48
2024-03-22T14:40:55.408Z,97634.91
2024-03-22T14:43:37.779Z,97632.04
2024-03-22T14:46:06.208Z,97635.50
2024-03-22T14:48:36.770Z,97636.13
2024-03-22T14:51:06.438Z,97641.02
2024-03-22T14:53:37.727Z,97640.98
2024-03-22T14:56:11.165Z,97638.25
2024-03-22T14:58:39.713Z,97640.76
2024-03-22T15:01:07.858Z,97642.66
2024-03-22T15:03:37.681Z,97646.94
2024-03-22T15:06:06.227Z,97645.04
2024-03-22T15:08:35.171Z,97644.60
2024-03-22T15:11:05.225Z,97646.17
2024-03-22T15:13:33.672Z,97646.59
2024-03-22T15:16:02.051Z,97646.63
2024-03-22T15:18:31.823Z,97646.14
2024-03-22T15:21:03.756Z,97648.80
2024-03-22T15:23:35.425Z,97649.02
2024-03-22T15:26:10.633Z,97644.16
2024-03-22T15:28:42.140Z,97644.45
2024-03-22T15:31:22.960Z,97639.66
2024-03-22T15:33:55.281Z,97642.06
2024-03-22T15:36:32.520Z,97638.77
2024-03-22T15:39:05.714Z,97637.08
2024-03-22T15:41:33.995Z,97634.95
2024-03-22T15:44:03.043Z,97630.36
2024-03-22T15:46:35.150Z,97631.95
2024-03-22T15:49:05.105Z,97624.02
2024-03-22T15:51:35.428Z,97621.55
2024-03-22T15:54:05.358Z,97620.47
2024-03-22T15:56:35.772Z,97615.55
2024-03-22T15:59:08.491Z,97609.72
2024-03-22T16:01:36.920Z,97609.42
2024-03-22T16:04:05.404Z,97611.57
2024-03-22T16:06:35.426Z,97614.46
2024-03-22T16:09:07.054Z,97613.05
2024-03-22T16:11:39.390Z,97613.55
2024-03-22T16:14:11.445Z,97614.31
2024-03-22T16:16:42.301Z,97611.61
2024-03-22T16:19:15.954Z,97613.73
2024-03-22T16:21:46.499Z,97614.33
2024-03-22T16:24:23.658Z,97614.16
2024-03-22T16:26:57.058Z,97615.45
2024-03-22T16:29:25.827Z,97614.74
2024-03-22T16:31:56.307Z,97616.71
2024-03-22T16:34:27.900Z,97621.77
2024-03-22T16:36:56.991Z,97620.99
2024-03-22T16:39:25.125Z,97622.79
2024-03-22T16:41:54.539Z,97625.73
2024-03-22T16:44:22.877Z,97628.48
2024-03-22T16:46:51.422Z,97630.64
2024-03-22T16:49:21.519Z,97630.76
2024-03-22T16:51:51.474Z,97629.27
2024-03-22T16:54:20.948Z,97632.02
2024-03-22T16:56:53.096Z,97631.79
2024-03-22T16:59:22.858Z,97634.22
2024-03-22T17:01:55.343Z,97637.10
2024-03-22T17:04:29.971Z,97638.21
2024-03-22T17:06:58.990Z,97638.04
2024-03-22T17:09:27.693Z,97642.19
2024-03-22T17:11:59.038Z,97646.11
2024-03-22T17:14:29.457Z,97647.00
2024-03-22T17:17:01.588Z,97651.13
2024-03-22T17:19:30.486Z,97653.38
2024-03-22T17:21:59.933Z,97651.63
2024-03-22T17:24:31.553Z,97652.07
2024-03-22T17:26:59.959Z,97655.00
2024-03-22T17:29:28.193Z,97658.73
2024-03-22T17:32:00.203Z,97657.57
2024-03-22T17:34:28.378Z,97657.20
2024-03-22T17:36:56.542Z,97659.10
2024-03-22T17:39:27.588Z,97658.45
2024-03-22T17:41:56.112Z,97657.32
2024-03-22T17:44:25.280Z,97658.38
2024-03-22T17:46:55.372Z,97659.23
2024-03-22T17:49:24.438Z,97657.47
2024-03-22T17:51:52.956Z,97657.38
2024-03-22T17:54:21.366Z,97654.28
2024-03-22T17:56:50.289Z,97655.09
2024-03-22T17:59:18.637Z,97651.39
2024-03-22T18:01:51.584Z,97653.96
2024-03-22T18:04:20.160Z,97654.16
2024-03-22T18:06:49.498Z,97652.73
2024-03-22T18:09:19.708Z,97651.05
2024-03-22T18:11:51.234Z,97652.60
2024-03-22T18:14:20.958Z,97650.54
2024-03-22T18:16:50.866Z,97650.48
2024-03-22T18:19:19.812Z,97648.27
2024-03-22T18:21:50.818Z,97645.30
2024-03-22T18:24:20.305Z,97648.48
2024-03-22T18:26:51.114Z,97649.31
2024-03-22T18:29:21.303Z,97644.48
2024-03-22T18:31:53.733Z,97645.27
2024-03-22T18:34:22.337Z,97641.75
2024-03-22T18:36:50.912Z,97642.35
2024-03-22T18:39:19.006Z,97644.77
2024-03-22T18:41:47.365Z,97642.58
2024-03-22T18:44:16.881Z,97635.56
2024-03-22T18:46:48.054Z,97638.46
2024-03-22T18:49:16.199Z,97634.08
2024-03-22T18:51:47.415Z,97630.38
2024-03-22T18:54:16.122Z,97631.31
2024-03-22T18:56:47.414Z,97632.66
2024-03-22T18:59:15.762Z,97635.86
2024-03-22T19:01:48.163Z,97633.98
2024-03-22T19:04:26.681Z,97631.83
2024-03-22T19:06:55.308Z,97632.25
2024-03-22T19:09:24.983Z,97635.92
2024-03-22T19:11:54.273Z,97634.05
2024-03-22T19:14:24.213Z,97633.49
2024-03-22T19:16:53.644Z,97631.09
2024-03-22T19:19:21.997Z,97629.05
2024-03-22T19:21:50.479Z,97633.66
2024-03-22T19:24:19.258Z,97636.23
2024-03-22T19:26:47.665Z,97636.77
2024-03-22T19:29:18.466Z,97636.45
2024-03-22T19:31:47.386Z,97633.61
2024-03-22T19:34:16.832Z,97634.60
2024-03-22T19:36:48.214Z,97632.77
2024-03-22T19:39:18.631Z,97636.34
2024-03-22T19:41:49.096Z,97633.31
2024-03-22T19:44:17.631Z,97633.33
2024-03-22T19:46:46.202Z,97635.79
2024-03-22T19:49:18.749Z,97639.09
2024-03-22T19:51:46.924Z,97642.27
2024-03-22T19:54:15.518Z,97642.39
2024-03-22T19:56:47.402Z,97640.29
2024-03-22T19:59:17.666Z,97641.81
2024-03-22T20:01:45.993Z,97645.34
2024-03-22T20:04:14.405Z,97645.34
2024-03-22T20:06:42.709Z,97643.71
2024-03-22T20:09:12.881Z,97639.17
2024-03-22T20:11:45.709Z,97638.90
2024-03-22T20:14:14.404Z,97639.47
2024-03-22T20:16:46.446Z,97641.54
2024-03-22T20:19:15.278Z,97642.43
2024-03-22T20:21:43.723Z,97644.77
2024-03-22T20:24:12.335Z,97647.10
2024-03-22T20:26:41.963Z,97646.20
2024-03-22T20:29:11.619Z,97644.64
2024-03-22T20:31:43.877Z,97640.89
2024-03-22T20:34:13.823Z,97635.38
2024-03-22T20:36:42.037Z,97634.04
2024-03-22T20:39:12.435Z,97637.02
2024-03-22T20:41:43.224Z,97630.91
2024-03-22T20:44:13.986Z,97634.05
2024-03-22T20:46:42.072Z,97630.25
2024-03-22T20:49:13.023Z,97627.66
2024-03-22T20:51:42.908Z,97628.92
2024-03-22T20:54:14.709Z,97631.63
2024-03-22T20:56:45.430Z,97627.48
2024-03-22T20:59:13.482Z,97629.91
2024-03-22T21:01:41.661Z,97629.39
2024-03-22T21:04:12.462Z,97628.25
2024-03-22T21:06:43.831Z,97630.54
2024-03-22T21:09:13.679Z,97630.52
2024-03-22T21:11:42.930Z,97624.77
2024-03-22T21:14:12.004Z,97626.40
2024-03-22T21:16:42.930Z,97628.25
2024-03-22T21:19:16.185Z,97629.30
2024-03-22T21:21:45.044Z,97626.33
2024-03-22T21:24:17.417Z,97626.45
2024-03-22T21:26:48.089Z,97626.63
2024-03-22T21:29:16.327Z,97624.77
2024-03-22T21:31:47.242Z,97623.77
2024-03-22T21:34:17.714Z,97621.11
2024-03-22T21:36:48.289Z,97621.33
2024-03-22T21:39:17.225Z,97619.23
2024-03-22T21:41:48.395Z,97620.66
2024-03-22T21:44:17.169Z,97617.95
2024-03-22T21:46:45.339Z,97619.06
2024-03-22T21:49:13.756Z,97615.58
2024-03-22T21:51:41.745Z,97614.05
2024-03-22T21:54:11.952Z,97609.44
2024-03-22T21:56:40.983Z,97610.11
2024-03-22T21:59:09.436Z,97609.86
2024-03-22T22:01:39.017Z,97606.85
2024-03-22T22:04:07.938Z,97602.30
2024-03-22T22:06:36.462Z,97604.84
2024-03-22T22:09:13.921Z,97606.66
2024-03-22T22:11:44.051Z,97606.02
2024-03-22T22:14:13.464Z,97608.91
2024-03-22T22:16:42.163Z,97603.02
2024-03-22T22:19:10.749Z,97601.82
2024-03-22T22:21:43.903Z,97597.21
2024-03-22T22:24:13.916Z,97597.23
2024-03-22T22:26:42.328Z,97598.03
2024-03-22T22:29:11.925Z,97598.64
2024-03-22T22:31:40.174Z,97594.98
2024-03-22T22:34:08.134Z,97595.83
2024-03-22T22:36:39.424Z,97590.13
2024-03-22T22:39:10.109Z,97592.56
2024-03-22T22:41:39.003Z,97594.55
2024-03-22T22:44:09.686Z,97595.02
2024-03-22T22:46:38.021Z,97593.77
2024-03-22T22:49:07.836Z,97595.73
2024-03-22T22:51:39.552Z,97593.94
2024-03-22T22:54:08.320Z,97595.02
2024-03-22T22:56:39.751Z,97594.94
2024-03-22T22:59:10.970Z,97594.13
2024-03-22T23:01:39.090Z,97593.31
2024-03-22T23:04:07.307Z,97592.20
2024-03-22T23:06:35.654Z,97591.21
2024-03-22T23:09:03.786Z,97592.80
2024-03-22T23:11:32.171Z,97594.66
2024-03-22T23:14:00.686Z,97591.26
2024-03-22T23:16:28.847Z,97588.15
2024-03-22T23:18:58.237Z,97588.65
2024-03-22T23:21:26.514Z,97589.08
2024-03-22T23:23:54.932Z,97585.98
2024-03-22T23:26:26.091Z,97585.52
2024-03-22T23:28:57.340Z,97585.88
2024-03-22T23:31:25.404Z,97581.52
2024-03-22T23:33:54.516Z,97586.30
2024-03-22T23:36:25.668Z,97580.29
2024-03-22T23:38:57.003Z,97576.40
2024-03-22T23:41:25.432Z,97579.14
2024-03-22T23:43:54.592Z,97573.34
2024-03-22T23:46:22.966Z,97571.28
2024-03-22T23:48:51.241Z,97566.03
2024-03-22T23:51:20.679Z,97565.48
2024-03-22T23:53:49.438Z,97567.09
2024-03-22T23:56:18.024Z,97563.38
2024-03-22T23:58:49.506Z,97562.16
